SBBE/BEL METAR and TAF weather

Enter ICAO airport designator
Station Type Date Time Source
SBBE METAR 2020/04/05 22:00 UTC NOAA

SBBE 052200Z 12004KT 9999 -RA SCT030 BKN070 25/24 Q1009


Station Type Date Time Source
SBBE Decoded METAR 2020/04/05 22:00 UTC NOAA

Belem Aeroporto , Brazil (SBBE) 01-23S 048-29W 16M
Apr 05, 2020 - 06:00 PM EDT / 2020.04.05 2200 UTC
Wind: from the ESE (120 degrees) at 5 MPH (4 KT):0
Visibility: greater than 7 mile(s):0
Sky conditions: mostly cloudy
Weather: light rain
Temperature: 77 F (25 C)
Dew Point: 75 F (24 C)
Relative Humidity: 94%
Pressure (altimeter): 29.80 in. Hg (1009 hPa)
ob: SBBE 052200Z 12004KT 9999 -RA SCT030 BKN070 25/24 Q1009
cycle: 22

Station Type Date Time Source
SBBE TAF 2020/04/05 18:03 UTC NOAA

TAF TAF SBBE 051415Z 0518/0618 12005KT 4000 RA SCT010 FEW030TCU TX30/0518Z TN24/0609Z
TEMPO 0518/0522 36010KT 3000 TSRA BKN025 FEW030CB
BECMG 0523/0601 07005KT 9999 NSW SCT030
BECMG 0604/0606 00000KT 7000 FEW007 SCT010
BECMG 0612/0614 08005KT 9999 SCT012
BECMG 0614/0616 06005KT BKN025
BECMG 0616/0618 03010KT 4000 RA BKN020 FEW030TCU
RMK PFV

Example: see airport list